createdAt,value
2023-03-13T00:01:57.182Z,5.25
2023-03-13T00:07:19.751Z,5.28
2023-03-13T00:12:41.577Z,5.28
2023-03-13T00:18:03.511Z,5.31
2023-03-13T00:23:25.329Z,5.33
2023-03-13T00:28:48.371Z,5.38
2023-03-13T00:34:11.186Z,5.40
2023-03-13T00:39:33.138Z,5.42
2023-03-13T00:44:56.872Z,5.42
2023-03-13T00:50:21.737Z,5.43
2023-03-13T00:55:56.983Z,5.44
2023-03-13T01:01:21.631Z,5.45
2023-03-13T01:06:43.549Z,5.46
2023-03-13T01:12:05.850Z,5.50
2023-03-13T01:17:28.147Z,5.50
2023-03-13T01:22:49.844Z,5.54
2023-03-13T01:28:11.473Z,5.56
2023-03-13T01:33:33.788Z,5.57
2023-03-13T01:38:58.436Z,5.56
2023-03-13T01:44:25.592Z,5.59
2023-03-13T01:49:51.119Z,5.62
2023-03-13T01:55:27.214Z,5.61
2023-03-13T02:00:49.344Z,5.63
2023-03-13T02:06:11.373Z,5.65
2023-03-13T02:11:41.364Z,5.67
2023-03-13T02:17:04.670Z,5.72
2023-03-13T02:22:28.862Z,5.75
2023-03-13T02:28:05.234Z,5.80
2023-03-13T02:33:31.421Z,5.82
2023-03-13T02:38:57.550Z,5.86
2023-03-13T02:44:19.991Z,5.90
2023-03-13T02:49:41.968Z,5.93
2023-03-13T02:55:07.917Z,5.98
2023-03-13T03:00:30.301Z,5.98
2023-03-13T03:05:53.904Z,6.03
2023-03-13T03:11:16.415Z,6.03
2023-03-13T03:16:41.100Z,6.04
2023-03-13T03:22:03.659Z,6.07
2023-03-13T03:27:27.140Z,6.11
2023-03-13T03:32:50.434Z,6.17
2023-03-13T03:38:12.597Z,6.17
2023-03-13T03:43:34.708Z,6.20
2023-03-13T03:48:57.938Z,6.20
2023-03-13T03:54:22.770Z,6.20
2023-03-13T03:59:44.385Z,6.20
2023-03-13T04:05:07.007Z,6.22
2023-03-13T04:10:31.993Z,6.24
2023-03-13T04:15:53.878Z,6.26
2023-03-13T04:21:16.213Z,6.28
2023-03-13T04:26:42.651Z,6.28
2023-03-13T04:32:04.882Z,6.31
2023-03-13T04:37:33.639Z,6.34
2023-03-13T04:43:21.054Z,6.37
2023-03-13T04:48:53.804Z,6.39
2023-03-13T04:54:27.091Z,6.46
2023-03-13T04:59:49.219Z,6.47
2023-03-13T05:05:17.749Z,6.46
2023-03-13T05:11:03.688Z,6.48
2023-03-13T05:16:51.711Z,6.50
2023-03-13T05:22:32.402Z,6.52
2023-03-13T05:28:10.396Z,6.50
2023-03-13T05:33:49.883Z,6.47
2023-03-13T05:39:36.719Z,6.46
2023-03-13T05:45:15.494Z,6.48
2023-03-13T05:50:43.032Z,6.50
2023-03-13T05:56:23.865Z,6.53
2023-03-13T06:02:14.835Z,6.53
2023-03-13T06:07:38.609Z,6.56
2023-03-13T06:13:17.182Z,6.58
2023-03-13T06:18:42.435Z,6.64
2023-03-13T06:24:04.220Z,6.70
2023-03-13T06:29:26.379Z,6.72
2023-03-13T06:34:48.281Z,6.83
2023-03-13T06:40:11.401Z,6.95
2023-03-13T06:45:36.089Z,7.14
2023-03-13T06:50:57.906Z,7.40
2023-03-13T06:56:21.995Z,7.55
2023-03-13T07:01:43.785Z,7.66
2023-03-13T07:07:05.894Z,7.84
2023-03-13T07:12:27.913Z,8.06
2023-03-13T07:17:50.195Z,8.24
2023-03-13T07:23:11.838Z,8.36
2023-03-13T07:28:36.473Z,8.42
2023-03-13T07:34:00.104Z,8.53
2023-03-13T07:39:21.913Z,8.61
2023-03-13T07:44:44.131Z,8.69
2023-03-13T07:50:06.854Z,8.79
2023-03-13T07:55:31.021Z,8.99
2023-03-13T08:00:52.831Z,9.21
2023-03-13T08:06:17.147Z,9.42
2023-03-13T08:11:44.725Z,9.57
2023-03-13T08:17:06.973Z,9.68
2023-03-13T08:22:28.944Z,9.80
2023-03-13T08:27:51.100Z,9.94
2023-03-13T08:33:12.828Z,10.11
2023-03-13T08:38:34.859Z,10.25
2023-03-13T08:43:57.999Z,10.28
2023-03-13T08:49:20.056Z,10.35
2023-03-13T08:54:42.257Z,10.53
2023-03-13T09:00:06.782Z,10.69
2023-03-13T09:05:28.620Z,10.87
2023-03-13T09:10:58.158Z,11.06
2023-03-13T09:16:23.068Z,11.36
2023-03-13T09:21:46.664Z,11.59
2023-03-13T09:27:08.653Z,11.72
2023-03-13T09:32:30.701Z,11.84
2023-03-13T09:37:52.749Z,12.13
2023-03-13T09:43:31.131Z,12.26
2023-03-13T09:48:57.700Z,12.33
2023-03-13T09:54:29.291Z,12.49
2023-03-13T10:00:01.102Z,12.47
2023-03-13T10:05:28.680Z,12.53
2023-03-13T10:11:02.935Z,12.68
2023-03-13T10:16:27.895Z,12.79
2023-03-13T10:21:53.004Z,12.73
2023-03-13T10:27:16.135Z,12.83
2023-03-13T10:32:38.171Z,12.98
2023-03-13T10:38:07.067Z,12.84
2023-03-13T10:43:29.785Z,12.79
2023-03-13T10:48:54.586Z,12.68
2023-03-13T10:54:37.613Z,12.58
2023-03-13T11:00:28.257Z,12.57
2023-03-13T11:05:58.660Z,12.63
2023-03-13T11:11:20.912Z,12.69
2023-03-13T11:16:49.630Z,12.75
2023-03-13T11:22:31.467Z,12.70
2023-03-13T11:28:15.220Z,12.65
2023-03-13T11:34:02.796Z,12.66
2023-03-13T11:39:37.672Z,12.86
2023-03-13T11:45:06.919Z,12.93
2023-03-13T11:51:14.529Z,12.94
2023-03-13T11:56:53.099Z,12.86
2023-03-13T12:02:33.133Z,12.80
2023-03-13T12:08:11.176Z,12.79
2023-03-13T12:13:36.641Z,12.83
2023-03-13T12:18:59.157Z,12.84
2023-03-13T12:24:27.920Z,12.80
2023-03-13T12:30:02.981Z,12.74
2023-03-13T12:35:35.155Z,12.63
2023-03-13T12:41:08.620Z,12.48
2023-03-13T12:47:04.866Z,12.34
2023-03-13T12:52:51.813Z,12.20
2023-03-13T12:58:31.878Z,12.05
2023-03-13T13:04:06.227Z,11.92
2023-03-13T13:09:33.631Z,11.80
2023-03-13T13:14:58.195Z,11.71
2023-03-13T13:20:35.218Z,11.67
2023-03-13T13:26:29.793Z,11.64
2023-03-13T13:31:52.085Z,11.57
2023-03-13T13:37:20.045Z,11.44
2023-03-13T13:42:47.895Z,11.34
2023-03-13T13:48:35.980Z,11.25
2023-03-13T13:54:17.941Z,11.20
2023-03-13T13:59:43.264Z,11.14
2023-03-13T14:05:16.288Z,11.07
2023-03-13T14:10:40.765Z,10.99
2023-03-13T14:16:27.412Z,10.90
2023-03-13T14:21:49.520Z,10.74
2023-03-13T14:27:16.962Z,10.60
2023-03-13T14:32:39.637Z,10.56
2023-03-13T14:38:03.123Z,10.51
2023-03-13T14:43:30.871Z,10.49
2023-03-13T14:48:56.239Z,10.50
2023-03-13T14:54:45.564Z,10.53
2023-03-13T15:00:34.417Z,10.61
2023-03-13T15:06:10.048Z,10.68
2023-03-13T15:11:34.212Z,10.70
2023-03-13T15:16:55.781Z,10.75
2023-03-13T15:22:19.253Z,10.79
2023-03-13T15:27:41.173Z,10.80
2023-03-13T15:33:03.621Z,10.81
2023-03-13T15:38:27.335Z,10.84
2023-03-13T15:43:52.978Z,10.84
2023-03-13T15:49:14.710Z,10.83
2023-03-13T15:54:36.939Z,10.82
2023-03-13T15:59:58.978Z,10.82
2023-03-13T16:05:23.808Z,10.81
2023-03-13T16:10:46.745Z,10.79
2023-03-13T16:16:20.614Z,10.78
2023-03-13T16:21:48.387Z,10.74
2023-03-13T16:27:15.800Z,10.70
2023-03-13T16:32:37.602Z,10.69
2023-03-13T16:37:59.890Z,10.71
2023-03-13T16:43:21.650Z,10.71
2023-03-13T16:48:44.700Z,10.69
2023-03-13T16:54:06.870Z,10.68
2023-03-13T16:59:28.800Z,10.66
2023-03-13T17:04:50.741Z,10.66
2023-03-13T17:10:21.042Z,10.63
2023-03-13T17:15:42.920Z,10.63
2023-03-13T17:21:06.561Z,10.61
2023-03-13T17:26:36.413Z,10.59
2023-03-13T17:31:58.423Z,10.58
2023-03-13T17:37:21.860Z,10.55
2023-03-13T17:42:43.690Z,10.55
2023-03-13T17:48:09.078Z,10.56
2023-03-13T17:53:30.852Z,10.51
2023-03-13T17:58:57.725Z,10.49
2023-03-13T18:04:19.938Z,10.47
2023-03-13T18:09:41.772Z,10.44
2023-03-13T18:15:04.820Z,10.36
2023-03-13T18:20:32.850Z,10.31
2023-03-13T18:25:58.001Z,10.31
2023-03-13T18:31:20.062Z,10.30
2023-03-13T18:36:42.914Z,10.29
2023-03-13T18:42:05.289Z,10.26
2023-03-13T18:47:28.939Z,10.28
2023-03-13T18:52:52.550Z,10.23
2023-03-13T18:58:16.595Z,10.12
2023-03-13T19:03:38.721Z,10.10
2023-03-13T19:09:05.948Z,10.04
2023-03-13T19:14:34.038Z,9.98
2023-03-13T19:19:57.822Z,9.94
2023-03-13T19:25:22.388Z,9.94
2023-03-13T19:30:50.063Z,9.97
2023-03-13T19:36:14.702Z,9.97
2023-03-13T19:41:37.159Z,10.02
2023-03-13T19:47:00.664Z,10.13
2023-03-13T19:52:24.390Z,10.23
2023-03-13T19:57:48.631Z,10.30
2023-03-13T20:03:13.296Z,10.37
2023-03-13T20:08:35.396Z,10.41
2023-03-13T20:13:57.830Z,10.44
2023-03-13T20:19:21.660Z,10.45
2023-03-13T20:24:43.691Z,10.48
2023-03-13T20:30:06.427Z,10.50
2023-03-13T20:35:28.574Z,10.52
2023-03-13T20:40:55.218Z,10.55
2023-03-13T20:46:17.366Z,10.56
2023-03-13T20:51:39.962Z,10.57
2023-03-13T20:57:02.659Z,10.62
2023-03-13T21:02:25.732Z,10.62
2023-03-13T21:07:48.454Z,10.62
2023-03-13T21:13:12.893Z,10.64
2023-03-13T21:18:37.622Z,10.67
2023-03-13T21:23:59.286Z,10.69
2023-03-13T21:29:21.294Z,10.67
2023-03-13T21:34:44.361Z,10.62
2023-03-13T21:40:07.604Z,10.53
2023-03-13T21:45:29.189Z,10.46
2023-03-13T21:50:54.332Z,10.39
2023-03-13T21:56:17.457Z,10.30
2023-03-13T22:01:39.389Z,10.23
2023-03-13T22:07:01.321Z,10.16
2023-03-13T22:12:23.998Z,10.10
2023-03-13T22:17:46.007Z,10.05
2023-03-13T22:23:10.529Z,10.06
2023-03-13T22:28:32.345Z,10.05
2023-03-13T22:33:54.381Z,10.06
2023-03-13T22:39:17.213Z,10.09
2023-03-13T22:44:39.137Z,10.14
2023-03-13T22:50:01.379Z,10.19
2023-03-13T22:55:23.299Z,10.23
2023-03-13T23:00:45.274Z,10.24
2023-03-13T23:06:11.773Z,10.24
2023-03-13T23:11:34.463Z,10.19
2023-03-13T23:16:57.235Z,10.17
2023-03-13T23:22:21.993Z,10.16
2023-03-13T23:27:47.067Z,10.07
2023-03-13T23:33:08.970Z,9.99
2023-03-13T23:38:31.219Z,9.95
2023-03-13T23:43:55.498Z,9.97
2023-03-13T23:49:17.245Z,9.98
2023-03-13T23:54:39.372Z,9.96
